sensor_id;sensor_type;location;lat;lon;timestamp;P1;durP1;ratioP1;P2;durP2;ratioP2
25609;SDS011;13479;49.044;8.716;2023-05-23T04:02:31;65.25;;;41.60;;
25609;SDS011;13479;49.044;8.716;2023-05-23T04:04:56;70.20;;;41.63;;
25609;SDS011;13479;49.044;8.716;2023-05-23T04:07:22;61.83;;;38.55;;
25609;SDS011;13479;49.044;8.716;2023-05-23T04:09:50;57.40;;;38.28;;
25609;SDS011;13479;49.044;8.716;2023-05-23T04:12:15;56.97;;;37.13;;
25609;SDS011;13479;49.044;8.716;2023-05-23T04:14:40;58.47;;;38.03;;
25609;SDS011;13479;49.044;8.716;2023-05-23T04:17:06;57.63;;;36.70;;
25609;SDS011;13479;49.044;8.716;2023-05-23T04:19:33;59.45;;;37.92;;
25609;SDS011;13479;49.044;8.716;2023-05-23T04:21:58;55.65;;;35.83;;
25609;SDS011;13479;49.044;8.716;2023-05-23T04:24:24;60.00;;;39.10;;
25609;SDS011;13479;49.044;8.716;2023-05-23T04:26:50;58.55;;;36.60;;
25609;SDS011;13479;49.044;8.716;2023-05-23T04:29:15;57.67;;;36.88;;
25609;SDS011;13479;49.044;8.716;2023-05-23T04:31:40;60.35;;;38.55;;
25609;SDS011;13479;49.044;8.716;2023-05-23T04:34:06;54.55;;;35.45;;
25609;SDS011;13479;49.044;8.716;2023-05-23T04:36:31;57.72;;;36.08;;
25609;SDS011;13479;49.044;8.716;2023-05-23T04:38:57;56.50;;;36.35;;
25609;SDS011;13479;49.044;8.716;2023-05-23T04:41:22;54.22;;;35.00;;
25609;SDS011;13479;49.044;8.716;2023-05-23T04:43:47;51.17;;;35.63;;
25609;SDS011;13479;49.044;8.716;2023-05-23T04:46:18;55.42;;;35.00;;
25609;SDS011;13479;49.044;8.716;2023-05-23T04:48:46;53.17;;;36.75;;
25609;SDS011;13479;49.044;8.716;2023-05-23T04:51:12;53.03;;;34.10;;
25609;SDS011;13479;49.044;8.716;2023-05-23T04:53:37;52.95;;;35.47;;
25609;SDS011;13479;49.044;8.716;2023-05-23T04:56:04;54.65;;;34.88;;
25609;SDS011;13479;49.044;8.716;2023-05-23T04:58:32;56.08;;;34.50;;
25609;SDS011;13479;49.044;8.716;2023-05-23T05:00:57;53.03;;;33.58;;
25609;SDS011;13479;49.044;8.716;2023-05-23T05:03:23;49.58;;;33.22;;
25609;SDS011;13479;49.044;8.716;2023-05-23T05:05:49;46.38;;;32.53;;
25609;SDS011;13479;49.044;8.716;2023-05-23T05:08:14;51.60;;;33.22;;
25609;SDS011;13479;49.044;8.716;2023-05-23T05:10:39;48.20;;;33.35;;
25609;SDS011;13479;49.044;8.716;2023-05-23T05:13:05;46.13;;;32.88;;
25609;SDS011;13479;49.044;8.716;2023-05-23T05:15:30;45.47;;;30.50;;
25609;SDS011;13479;49.044;8.716;2023-05-23T05:17:56;49.05;;;31.20;;
25609;SDS011;13479;49.044;8.716;2023-05-23T05:20:21;48.55;;;32.20;;
25609;SDS011;13479;49.044;8.716;2023-05-23T05:22:53;42.28;;;30.08;;
25609;SDS011;13479;49.044;8.716;2023-05-23T05:25:19;43.50;;;27.95;;
25609;SDS011;13479;49.044;8.716;2023-05-23T05:27:45;41.00;;;28.25;;
25609;SDS011;13479;49.044;8.716;2023-05-23T05:30:10;42.30;;;27.73;;
25609;SDS011;13479;49.044;8.716;2023-05-23T05:32:36;41.53;;;25.83;;
25609;SDS011;13479;49.044;8.716;2023-05-23T05:35:01;39.85;;;24.52;;
25609;SDS011;13479;49.044;8.716;2023-05-23T05:37:27;33.35;;;23.98;;
25609;SDS011;13479;49.044;8.716;2023-05-23T05:39:53;33.38;;;22.52;;
25609;SDS011;13479;49.044;8.716;2023-05-23T05:42:20;36.67;;;21.50;;
25609;SDS011;13479;49.044;8.716;2023-05-23T05:44:46;34.60;;;23.95;;
25609;SDS011;13479;49.044;8.716;2023-05-23T05:47:12;30.00;;;21.40;;
25609;SDS011;13479;49.044;8.716;2023-05-23T05:49:37;30.00;;;21.60;;
25609;SDS011;13479;49.044;8.716;2023-05-23T05:52:02;32.55;;;23.60;;
25609;SDS011;13479;49.044;8.716;2023-05-23T05:54:27;30.63;;;20.92;;
25609;SDS011;13479;49.044;8.716;2023-05-23T05:56:53;30.60;;;21.85;;
25609;SDS011;13479;49.044;8.716;2023-05-23T05:59:19;30.27;;;21.42;;
25609;SDS011;13479;49.044;8.716;2023-05-23T06:01:44;27.85;;;19.85;;
25609;SDS011;13479;49.044;8.716;2023-05-23T06:04:10;26.95;;;20.42;;
25609;SDS011;13479;49.044;8.716;2023-05-23T06:06:35;29.25;;;20.92;;
25609;SDS011;13479;49.044;8.716;2023-05-23T06:09:00;28.60;;;20.42;;
25609;SDS011;13479;49.044;8.716;2023-05-23T06:11:26;26.45;;;18.58;;
25609;SDS011;13479;49.044;8.716;2023-05-23T06:13:51;32.30;;;23.00;;
25609;SDS011;13479;49.044;8.716;2023-05-23T06:16:17;30.23;;;23.17;;
25609;SDS011;13479;49.044;8.716;2023-05-23T06:18:42;34.65;;;20.70;;
25609;SDS011;13479;49.044;8.716;2023-05-23T06:21:07;31.13;;;22.15;;
25609;SDS011;13479;49.044;8.716;2023-05-23T06:23:33;30.45;;;21.13;;
25609;SDS011;13479;49.044;8.716;2023-05-23T06:25:58;29.77;;;20.63;;
25609;SDS011;13479;49.044;8.716;2023-05-23T06:28:23;28.42;;;19.98;;
25609;SDS011;13479;49.044;8.716;2023-05-23T06:30:49;34.80;;;20.48;;
25609;SDS011;13479;49.044;8.716;2023-05-23T06:33:15;29.25;;;19.08;;
25609;SDS011;13479;49.044;8.716;2023-05-23T06:35:40;29.63;;;20.75;;
25609;SDS011;13479;49.044;8.716;2023-05-23T06:38:05;30.65;;;19.25;;
25609;SDS011;13479;49.044;8.716;2023-05-23T06:40:32;28.52;;;18.70;;
25609;SDS011;13479;49.044;8.716;2023-05-23T06:42:57;27.27;;;19.92;;
25609;SDS011;13479;49.044;8.716;2023-05-23T06:45:22;27.70;;;19.67;;
25609;SDS011;13479;49.044;8.716;2023-05-23T06:47:47;28.58;;;19.92;;
25609;SDS011;13479;49.044;8.716;2023-05-23T06:50:13;25.40;;;16.92;;
25609;SDS011;13479;49.044;8.716;2023-05-23T06:52:38;25.92;;;16.50;;
25609;SDS011;13479;49.044;8.716;2023-05-23T06:55:04;22.98;;;16.35;;
25609;SDS011;13479;49.044;8.716;2023-05-23T06:57:29;26.08;;;17.92;;
25609;SDS011;13479;49.044;8.716;2023-05-23T06:59:55;25.40;;;16.48;;
25609;SDS011;13479;49.044;8.716;2023-05-23T07:02:20;23.45;;;15.75;;
25609;SDS011;13479;49.044;8.716;2023-05-23T07:04:45;21.23;;;14.52;;
25609;SDS011;13479;49.044;8.716;2023-05-23T07:07:10;22.15;;;15.60;;
25609;SDS011;13479;49.044;8.716;2023-05-23T07:09:36;21.08;;;15.23;;
25609;SDS011;13479;49.044;8.716;2023-05-23T07:12:02;21.40;;;15.13;;
25609;SDS011;13479;49.044;8.716;2023-05-23T07:14:28;20.00;;;14.77;;
25609;SDS011;13479;49.044;8.716;2023-05-23T07:16:53;18.65;;;14.77;;
25609;SDS011;13479;49.044;8.716;2023-05-23T07:19:18;18.98;;;14.20;;
25609;SDS011;13479;49.044;8.716;2023-05-23T07:21:44;18.77;;;14.77;;
25609;SDS011;13479;49.044;8.716;2023-05-23T07:24:09;19.67;;;14.30;;
25609;SDS011;13479;49.044;8.716;2023-05-23T07:26:34;21.67;;;14.35;;
25609;SDS011;13479;49.044;8.716;2023-05-23T07:28:59;23.40;;;16.27;;
25609;SDS011;13479;49.044;8.716;2023-05-23T07:31:25;22.45;;;14.45;;
25609;SDS011;13479;49.044;8.716;2023-05-23T07:33:50;21.95;;;15.45;;
25609;SDS011;13479;49.044;8.716;2023-05-23T07:36:15;23.33;;;16.05;;
25609;SDS011;13479;49.044;8.716;2023-05-23T07:38:40;20.38;;;15.55;;
25609;SDS011;13479;49.044;8.716;2023-05-23T07:41:06;19.45;;;14.95;;
25609;SDS011;13479;49.044;8.716;2023-05-23T07:43:31;21.73;;;14.23;;
25609;SDS011;13479;49.044;8.716;2023-05-23T07:45:56;22.02;;;15.50;;
25609;SDS011;13479;49.044;8.716;2023-05-23T07:48:21;18.92;;;15.02;;
25609;SDS011;13479;49.044;8.716;2023-05-23T07:50:47;18.77;;;14.32;;
25609;SDS011;13479;49.044;8.716;2023-05-23T07:53:12;21.83;;;13.45;;
25609;SDS011;13479;49.044;8.716;2023-05-23T07:55:37;20.75;;;13.38;;
25609;SDS011;13479;49.044;8.716;2023-05-23T07:58:03;16.98;;;11.98;;
25609;SDS011;13479;49.044;8.716;2023-05-23T08:00:28;18.05;;;12.77;;
25609;SDS011;13479;49.044;8.716;2023-05-23T08:02:53;16.90;;;10.80;;
25609;SDS011;13479;49.044;8.716;2023-05-23T08:05:18;13.88;;;8.80;;
25609;SDS011;13479;49.044;8.716;2023-05-23T08:07:45;13.82;;;10.05;;
25609;SDS011;13479;49.044;8.716;2023-05-23T08:10:11;13.75;;;10.25;;
25609;SDS011;13479;49.044;8.716;2023-05-23T08:12:36;12.32;;;9.40;;
25609;SDS011;13479;49.044;8.716;2023-05-23T08:15:01;18.25;;;8.93;;
25609;SDS011;13479;49.044;8.716;2023-05-23T08:17:27;9.95;;;7.57;;
25609;SDS011;13479;49.044;8.716;2023-05-23T08:19:52;11.07;;;7.43;;
25609;SDS011;13479;49.044;8.716;2023-05-23T08:22:18;10.40;;;7.38;;
25609;SDS011;13479;49.044;8.716;2023-05-23T08:24:43;9.90;;;7.20;;
25609;SDS011;13479;49.044;8.716;2023-05-23T08:27:08;8.73;;;6.45;;
25609;SDS011;13479;49.044;8.716;2023-05-23T08:29:34;9.20;;;6.90;;
25609;SDS011;13479;49.044;8.716;2023-05-23T08:31:59;9.45;;;6.88;;
25609;SDS011;13479;49.044;8.716;2023-05-23T08:34:24;8.27;;;6.32;;
25609;SDS011;13479;49.044;8.716;2023-05-23T08:36:50;11.82;;;8.38;;
25609;SDS011;13479;49.044;8.716;2023-05-23T08:39:16;12.30;;;8.00;;
25609;SDS011;13479;49.044;8.716;2023-05-23T08:41:41;15.40;;;9.38;;
25609;SDS011;13479;49.044;8.716;2023-05-23T08:44:07;12.93;;;9.77;;
25609;SDS011;13479;49.044;8.716;2023-05-23T08:46:32;12.48;;;9.32;;
25609;SDS011;13479;49.044;8.716;2023-05-23T08:48:57;14.32;;;9.40;;
25609;SDS011;13479;49.044;8.716;2023-05-23T08:51:25;11.07;;;8.05;;
25609;SDS011;13479;49.044;8.716;2023-05-23T08:53:51;12.85;;;8.77;;
25609;SDS011;13479;49.044;8.716;2023-05-23T08:56:18;13.68;;;9.35;;
25609;SDS011;13479;49.044;8.716;2023-05-23T08:58:43;10.50;;;8.57;;
25609;SDS011;13479;49.044;8.716;2023-05-23T09:01:11;13.15;;;9.48;;
25609;SDS011;13479;49.044;8.716;2023-05-23T09:03:38;14.80;;;8.75;;
25609;SDS011;13479;49.044;8.716;2023-05-23T09:06:07;12.63;;;9.25;;
25609;SDS011;13479;49.044;8.716;2023-05-23T09:08:33;13.52;;;9.60;;
25609;SDS011;13479;49.044;8.716;2023-05-23T09:10:58;13.43;;;8.68;;
25609;SDS011;13479;49.044;8.716;2023-05-23T09:13:26;14.02;;;9.18;;
25609;SDS011;13479;49.044;8.716;2023-05-23T09:16:06;13.27;;;9.27;;
25609;SDS011;13479;49.044;8.716;2023-05-23T09:18:37;13.05;;;8.63;;
25609;SDS011;13479;49.044;8.716;2023-05-23T09:21:04;11.35;;;7.72;;
25609;SDS011;13479;49.044;8.716;2023-05-23T09:23:31;11.48;;;7.60;;
25609;SDS011;13479;49.044;8.716;2023-05-23T09:26:04;12.73;;;7.63;;
25609;SDS011;13479;49.044;8.716;2023-05-23T09:28:33;9.98;;;8.25;;
25609;SDS011;13479;49.044;8.716;2023-05-23T09:30:59;12.23;;;8.25;;
25609;SDS011;13479;49.044;8.716;2023-05-23T09:33:33;11.35;;;7.63;;
25609;SDS011;13479;49.044;8.716;2023-05-23T09:36:14;10.50;;;8.23;;
25609;SDS011;13479;49.044;8.716;2023-05-23T09:38:41;13.27;;;8.98;;
25609;SDS011;13479;49.044;8.716;2023-05-23T09:41:07;12.13;;;8.57;;
25609;SDS011;13479;49.044;8.716;2023-05-23T09:43:36;12.55;;;9.30;;
25609;SDS011;13479;49.044;8.716;2023-05-23T09:46:06;11.85;;;8.40;;
25609;SDS011;13479;49.044;8.716;2023-05-23T09:48:34;11.48;;;8.48;;
25609;SDS011;13479;49.044;8.716;2023-05-23T09:51:07;11.43;;;7.72;;
25609;SDS011;13479;49.044;8.716;2023-05-23T09:53:33;13.43;;;7.82;;
25609;SDS011;13479;49.044;8.716;2023-05-23T09:55:59;13.18;;;7.40;;
25609;SDS011;13479;49.044;8.716;2023-05-23T09:58:26;10.45;;;6.82;;
25609;SDS011;13479;49.044;8.716;2023-05-23T10:00:54;8.98;;;6.38;;
25609;SDS011;13479;49.044;8.716;2023-05-23T10:03:26;7.13;;;6.05;;
25609;SDS011;13479;49.044;8.716;2023-05-23T10:05:56;9.20;;;6.30;;
25609;SDS011;13479;49.044;8.716;2023-05-23T10:11:28;7.53;;;5.65;;
25609;SDS011;13479;49.044;8.716;2023-05-23T10:13:58;8.40;;;5.78;;
25609;SDS011;13479;49.044;8.716;2023-05-23T10:19:24;10.07;;;6.28;;
25609;SDS011;13479;49.044;8.716;2023-05-23T10:21:57;6.53;;;5.22;;
25609;SDS011;13479;49.044;8.716;2023-05-23T10:24:24;6.78;;;5.15;;
25609;SDS011;13479;49.044;8.716;2023-05-23T10:26:51;6.75;;;4.70;;
25609;SDS011;13479;49.044;8.716;2023-05-23T10:29:18;5.38;;;4.60;;
25609;SDS011;13479;49.044;8.716;2023-05-23T10:31:45;6.57;;;4.72;;
25609;SDS011;13479;49.044;8.716;2023-05-23T10:34:13;7.10;;;4.95;;
25609;SDS011;13479;49.044;8.716;2023-05-23T10:36:59;5.15;;;4.05;;
25609;SDS011;13479;49.044;8.716;2023-05-23T10:45:28;5.15;;;3.75;;
25609;SDS011;13479;49.044;8.716;2023-05-23T10:47:53;5.40;;;4.22;;
25609;SDS011;13479;49.044;8.716;2023-05-23T10:50:29;5.05;;;3.70;;
25609;SDS011;13479;49.044;8.716;2023-05-23T10:52:59;4.97;;;3.70;;
25609;SDS011;13479;49.044;8.716;2023-05-23T10:55:29;4.07;;;3.58;;
25609;SDS011;13479;49.044;8.716;2023-05-23T10:58:13;6.53;;;3.92;;
25609;SDS011;13479;49.044;8.716;2023-05-23T11:00:54;4.95;;;4.00;;
25609;SDS011;13479;49.044;8.716;2023-05-23T11:03:55;5.32;;;3.80;;
25609;SDS011;13479;49.044;8.716;2023-05-23T11:09:18;5.13;;;3.70;;
25609;SDS011;13479;49.044;8.716;2023-05-23T11:14:18;4.90;;;3.38;;
25609;SDS011;13479;49.044;8.716;2023-05-23T11:16:45;7.82;;;3.13;;
25609;SDS011;13479;49.044;8.716;2023-05-23T11:21:44;4.10;;;3.35;;
25609;SDS011;13479;49.044;8.716;2023-05-23T11:24:10;4.07;;;3.15;;
25609;SDS011;13479;49.044;8.716;2023-05-23T11:26:36;4.78;;;3.05;;
25609;SDS011;13479;49.044;8.716;2023-05-23T11:29:01;4.40;;;3.45;;
25609;SDS011;13479;49.044;8.716;2023-05-23T11:31:29;4.55;;;3.30;;
25609;SDS011;13479;49.044;8.716;2023-05-23T11:34:01;3.58;;;3.10;;
25609;SDS011;13479;49.044;8.716;2023-05-23T11:36:26;4.70;;;3.00;;
25609;SDS011;13479;49.044;8.716;2023-05-23T11:38:51;3.70;;;2.88;;
25609;SDS011;13479;49.044;8.716;2023-05-23T11:41:17;4.13;;;2.95;;
25609;SDS011;13479;49.044;8.716;2023-05-23T11:43:52;4.97;;;2.70;;
25609;SDS011;13479;49.044;8.716;2023-05-23T11:46:17;5.18;;;3.30;;
25609;SDS011;13479;49.044;8.716;2023-05-23T11:48:43;4.57;;;3.40;;
25609;SDS011;13479;49.044;8.716;2023-05-23T11:51:13;4.57;;;2.70;;
25609;SDS011;13479;49.044;8.716;2023-05-23T11:53:39;3.60;;;2.75;;
25609;SDS011;13479;49.044;8.716;2023-05-23T11:56:04;3.75;;;2.67;;
25609;SDS011;13479;49.044;8.716;2023-05-23T11:58:30;4.75;;;2.65;;
25609;SDS011;13479;49.044;8.716;2023-05-23T12:01:02;4.47;;;2.83;;
25609;SDS011;13479;49.044;8.716;2023-05-23T12:03:28;2.88;;;2.30;;
25609;SDS011;13479;49.044;8.716;2023-05-23T12:05:55;3.83;;;3.00;;
25609;SDS011;13479;49.044;8.716;2023-05-23T12:08:20;3.90;;;2.60;;
25609;SDS011;13479;49.044;8.716;2023-05-23T12:10:53;4.80;;;3.08;;
25609;SDS011;13479;49.044;8.716;2023-05-23T12:13:22;5.78;;;2.78;;
25609;SDS011;13479;49.044;8.716;2023-05-23T12:15:49;4.55;;;3.03;;
25609;SDS011;13479;49.044;8.716;2023-05-23T12:18:17;6.05;;;3.28;;
25609;SDS011;13479;49.044;8.716;2023-05-23T12:20:43;4.05;;;2.70;;
25609;SDS011;13479;49.044;8.716;2023-05-23T12:23:16;4.03;;;3.00;;
25609;SDS011;13479;49.044;8.716;2023-05-23T12:25:43;4.70;;;2.90;;
25609;SDS011;13479;49.044;8.716;2023-05-23T12:28:08;3.63;;;2.85;;
25609;SDS011;13479;49.044;8.716;2023-05-23T12:30:40;4.13;;;2.97;;
25609;SDS011;13479;49.044;8.716;2023-05-23T12:33:07;6.00;;;2.90;;
25609;SDS011;13479;49.044;8.716;2023-05-23T12:35:33;3.85;;;2.92;;
25609;SDS011;13479;49.044;8.716;2023-05-23T12:37:58;3.55;;;2.78;;
25609;SDS011;13479;49.044;8.716;2023-05-23T12:40:23;5.40;;;2.80;;
25609;SDS011;13479;49.044;8.716;2023-05-23T12:42:55;5.13;;;2.75;;
25609;SDS011;13479;49.044;8.716;2023-05-23T12:47:55;4.65;;;2.83;;
25609;SDS011;13479;49.044;8.716;2023-05-23T12:50:21;2.55;;;2.20;;
25609;SDS011;13479;49.044;8.716;2023-05-23T12:52:46;4.35;;;2.67;;
25609;SDS011;13479;49.044;8.716;2023-05-23T12:55:11;4.53;;;2.97;;
25609;SDS011;13479;49.044;8.716;2023-05-23T12:57:37;3.33;;;2.55;;
25609;SDS011;13479;49.044;8.716;2023-05-23T13:00:02;3.72;;;2.55;;
25609;SDS011;13479;49.044;8.716;2023-05-23T13:02:28;5.80;;;3.38;;
25609;SDS011;13479;49.044;8.716;2023-05-23T13:04:53;6.15;;;3.30;;
25609;SDS011;13479;49.044;8.716;2023-05-23T13:07:19;5.13;;;3.22;;
25609;SDS011;13479;49.044;8.716;2023-05-23T13:09:44;5.40;;;2.70;;
25609;SDS011;13479;49.044;8.716;2023-05-23T13:12:09;3.97;;;3.08;;
25609;SDS011;13479;49.044;8.716;2023-05-23T13:14:36;4.03;;;2.70;;
25609;SDS011;13479;49.044;8.716;2023-05-23T13:17:01;7.22;;;3.00;;
25609;SDS011;13479;49.044;8.716;2023-05-23T13:19:27;7.10;;;2.85;;
25609;SDS011;13479;49.044;8.716;2023-05-23T13:21:52;4.10;;;2.75;;
25609;SDS011;13479;49.044;8.716;2023-05-23T13:24:17;3.90;;;2.78;;
25609;SDS011;13479;49.044;8.716;2023-05-23T13:26:43;5.05;;;2.33;;
25609;SDS011;13479;49.044;8.716;2023-05-23T13:29:08;3.33;;;2.50;;
25609;SDS011;13479;49.044;8.716;2023-05-23T13:31:33;4.57;;;3.05;;
25609;SDS011;13479;49.044;8.716;2023-05-23T13:33:58;4.00;;;2.90;;
25609;SDS011;13479;49.044;8.716;2023-05-23T13:36:24;3.97;;;2.97;;
25609;SDS011;13479;49.044;8.716;2023-05-23T13:38:49;5.18;;;2.80;;
25609;SDS011;13479;49.044;8.716;2023-05-23T13:41:15;3.95;;;2.90;;
25609;SDS011;13479;49.044;8.716;2023-05-23T13:43:40;5.25;;;3.05;;
25609;SDS011;13479;49.044;8.716;2023-05-23T13:46:06;4.60;;;2.90;;
25609;SDS011;13479;49.044;8.716;2023-05-23T13:48:31;4.13;;;2.60;;
25609;SDS011;13479;49.044;8.716;2023-05-23T13:50:56;3.97;;;2.80;;
25609;SDS011;13479;49.044;8.716;2023-05-23T13:53:22;5.15;;;3.13;;
25609;SDS011;13479;49.044;8.716;2023-05-23T13:55:47;3.55;;;2.75;;
25609;SDS011;13479;49.044;8.716;2023-05-23T13:58:12;7.82;;;4.30;;
25609;SDS011;13479;49.044;8.716;2023-05-23T14:00:38;7.38;;;4.13;;
25609;SDS011;13479;49.044;8.716;2023-05-23T14:03:04;6.60;;;4.70;;
25609;SDS011;13479;49.044;8.716;2023-05-23T14:05:31;6.68;;;4.75;;
25609;SDS011;13479;49.044;8.716;2023-05-23T14:07:56;9.50;;;4.75;;
25609;SDS011;13479;49.044;8.716;2023-05-23T14:10:21;8.38;;;4.97;;
25609;SDS011;13479;49.044;8.716;2023-05-23T14:12:47;7.38;;;4.88;;
25609;SDS011;13479;49.044;8.716;2023-05-23T14:15:12;10.95;;;5.93;;
25609;SDS011;13479;49.044;8.716;2023-05-23T14:17:38;7.28;;;5.20;;
25609;SDS011;13479;49.044;8.716;2023-05-23T14:20:03;9.98;;;5.10;;
25609;SDS011;13479;49.044;8.716;2023-05-23T14:22:29;6.30;;;4.97;;
25609;SDS011;13479;49.044;8.716;2023-05-23T14:24:54;7.22;;;4.88;;
25609;SDS011;13479;49.044;8.716;2023-05-23T14:27:20;7.90;;;5.82;;
25609;SDS011;13479;49.044;8.716;2023-05-23T14:29:45;6.00;;;4.45;;
25609;SDS011;13479;49.044;8.716;2023-05-23T14:32:11;8.13;;;5.13;;
25609;SDS011;13479;49.044;8.716;2023-05-23T14:34:37;8.32;;;5.60;;
25609;SDS011;13479;49.044;8.716;2023-05-23T14:37:02;6.68;;;4.60;;
25609;SDS011;13479;49.044;8.716;2023-05-23T14:39:27;6.05;;;4.70;;
25609;SDS011;13479;49.044;8.716;2023-05-23T14:41:53;7.82;;;4.90;;
25609;SDS011;13479;49.044;8.716;2023-05-23T14:44:18;7.45;;;4.95;;
25609;SDS011;13479;49.044;8.716;2023-05-23T14:46:43;6.85;;;5.53;;
25609;SDS011;13479;49.044;8.716;2023-05-23T14:49:12;6.85;;;4.55;;
25609;SDS011;13479;49.044;8.716;2023-05-23T14:51:38;9.40;;;5.80;;
25609;SDS011;13479;49.044;8.716;2023-05-23T14:54:03;8.85;;;5.00;;
25609;SDS011;13479;49.044;8.716;2023-05-23T14:56:28;6.68;;;4.55;;
25609;SDS011;13479;49.044;8.716;2023-05-23T14:58:53;8.05;;;5.25;;
25609;SDS011;13479;49.044;8.716;2023-05-23T15:01:21;7.35;;;5.38;;
25609;SDS011;13479;49.044;8.716;2023-05-23T15:03:46;11.93;;;6.07;;
25609;SDS011;13479;49.044;8.716;2023-05-23T15:06:12;6.40;;;5.15;;
25609;SDS011;13479;49.044;8.716;2023-05-23T15:08:37;8.88;;;5.50;;
25609;SDS011;13479;49.044;8.716;2023-05-23T15:11:02;6.97;;;5.55;;
25609;SDS011;13479;49.044;8.716;2023-05-23T15:13:27;7.10;;;5.35;;
25609;SDS011;13479;49.044;8.716;2023-05-23T15:15:53;8.57;;;6.25;;
25609;SDS011;13479;49.044;8.716;2023-05-23T15:18:18;8.65;;;5.15;;
25609;SDS011;13479;49.044;8.716;2023-05-23T15:20:43;11.23;;;6.03;;
25609;SDS011;13479;49.044;8.716;2023-05-23T15:23:09;8.98;;;6.45;;
25609;SDS011;13479;49.044;8.716;2023-05-23T15:25:34;8.68;;;6.13;;
25609;SDS011;13479;49.044;8.716;2023-05-23T15:27:59;11.27;;;6.50;;
25609;SDS011;13479;49.044;8.716;2023-05-23T15:30:24;8.75;;;6.22;;
25609;SDS011;13479;49.044;8.716;2023-05-23T15:32:50;7.38;;;5.13;;
25609;SDS011;13479;49.044;8.716;2023-05-23T15:35:15;8.63;;;5.38;;
25609;SDS011;13479;49.044;8.716;2023-05-23T15:37:41;10.40;;;5.25;;
25609;SDS011;13479;49.044;8.716;2023-05-23T15:40:07;9.88;;;5.65;;
25609;SDS011;13479;49.044;8.716;2023-05-23T15:42:32;8.70;;;5.30;;
25609;SDS011;13479;49.044;8.716;2023-05-23T15:44:58;12.18;;;5.53;;
25609;SDS011;13479;49.044;8.716;2023-05-23T15:47:23;8.82;;;5.43;;
25609;SDS011;13479;49.044;8.716;2023-05-23T15:49:49;8.85;;;5.15;;
25609;SDS011;13479;49.044;8.716;2023-05-23T15:52:14;6.93;;;4.82;;
25609;SDS011;13479;49.044;8.716;2023-05-23T15:54:39;8.27;;;4.72;;
25609;SDS011;13479;49.044;8.716;2023-05-23T15:57:04;8.63;;;4.70;;
25609;SDS011;13479;49.044;8.716;2023-05-23T15:59:30;8.23;;;4.88;;
25609;SDS011;13479;49.044;8.716;2023-05-23T16:01:55;5.93;;;4.28;;
25609;SDS011;13479;49.044;8.716;2023-05-23T16:04:21;7.07;;;4.40;;
25609;SDS011;13479;49.044;8.716;2023-05-23T16:06:47;7.70;;;4.37;;
25609;SDS011;13479;49.044;8.716;2023-05-23T16:09:13;8.10;;;3.72;;
25609;SDS011;13479;49.044;8.716;2023-05-23T16:11:38;6.32;;;4.32;;
25609;SDS011;13479;49.044;8.716;2023-05-23T16:14:04;6.15;;;3.90;;
25609;SDS011;13479;49.044;8.716;2023-05-23T16:16:29;8.88;;;4.10;;
25609;SDS011;13479;49.044;8.716;2023-05-23T16:18:55;7.93;;;4.00;;
25609;SDS011;13479;49.044;8.716;2023-05-23T16:21:20;6.63;;;3.65;;
25609;SDS011;13479;49.044;8.716;2023-05-23T16:23:48;7.80;;;4.07;;
25609;SDS011;13479;49.044;8.716;2023-05-23T16:26:14;6.10;;;4.60;;
25609;SDS011;13479;49.044;8.716;2023-05-23T16:28:43;7.90;;;4.70;;
25609;SDS011;13479;49.044;8.716;2023-05-23T16:31:09;9.05;;;4.70;;
25609;SDS011;13479;49.044;8.716;2023-05-23T16:33:37;7.88;;;5.45;;
25609;SDS011;13479;49.044;8.716;2023-05-23T16:36:03;8.85;;;4.75;;
25609;SDS011;13479;49.044;8.716;2023-05-23T16:38:28;9.38;;;5.88;;
25609;SDS011;13479;49.044;8.716;2023-05-23T16:40:54;9.18;;;5.30;;
25609;SDS011;13479;49.044;8.716;2023-05-23T16:43:19;7.80;;;5.05;;
25609;SDS011;13479;49.044;8.716;2023-05-23T16:45:44;8.60;;;5.03;;
25609;SDS011;13479;49.044;8.716;2023-05-23T16:48:10;9.30;;;5.20;;
25609;SDS011;13479;49.044;8.716;2023-05-23T16:50:35;8.90;;;5.25;;
25609;SDS011;13479;49.044;8.716;2023-05-23T16:53:00;10.48;;;5.43;;
25609;SDS011;13479;49.044;8.716;2023-05-23T16:55:25;10.50;;;4.82;;
25609;SDS011;13479;49.044;8.716;2023-05-23T16:57:51;6.22;;;4.13;;
25609;SDS011;13479;49.044;8.716;2023-05-23T17:00:17;9.68;;;4.97;;
25609;SDS011;13479;49.044;8.716;2023-05-23T17:02:44;9.85;;;4.65;;
25609;SDS011;13479;49.044;8.716;2023-05-23T17:05:09;6.53;;;4.53;;
25609;SDS011;13479;49.044;8.716;2023-05-23T17:07:35;8.75;;;5.20;;
25609;SDS011;13479;49.044;8.716;2023-05-23T17:10:00;8.95;;;5.32;;
25609;SDS011;13479;49.044;8.716;2023-05-23T17:12:25;12.40;;;6.40;;
25609;SDS011;13479;49.044;8.716;2023-05-23T17:14:50;9.45;;;5.93;;
25609;SDS011;13479;49.044;8.716;2023-05-23T17:17:16;9.73;;;6.38;;
25609;SDS011;13479;49.044;8.716;2023-05-23T17:19:41;11.40;;;6.70;;
25609;SDS011;13479;49.044;8.716;2023-05-23T17:22:06;10.68;;;7.05;;
25609;SDS011;13479;49.044;8.716;2023-05-23T17:24:32;11.75;;;6.63;;
25609;SDS011;13479;49.044;8.716;2023-05-23T17:26:57;10.88;;;7.18;;
25609;SDS011;13479;49.044;8.716;2023-05-23T17:29:22;12.75;;;7.32;;
25609;SDS011;13479;49.044;8.716;2023-05-23T17:31:48;10.43;;;7.20;;
25609;SDS011;13479;49.044;8.716;2023-05-23T17:34:13;11.55;;;7.05;;
25609;SDS011;13479;49.044;8.716;2023-05-23T17:36:38;11.93;;;7.53;;
25609;SDS011;13479;49.044;8.716;2023-05-23T17:39:04;9.77;;;6.93;;
25609;SDS011;13479;49.044;8.716;2023-05-23T17:41:29;10.10;;;7.32;;
25609;SDS011;13479;49.044;8.716;2023-05-23T17:43:54;15.38;;;7.53;;
25609;SDS011;13479;49.044;8.716;2023-05-23T17:46:20;12.05;;;7.03;;
25609;SDS011;13479;49.044;8.716;2023-05-23T17:48:45;14.00;;;8.35;;
25609;SDS011;13479;49.044;8.716;2023-05-23T17:51:10;14.77;;;7.93;;
25609;SDS011;13479;49.044;8.716;2023-05-23T17:53:36;16.58;;;7.90;;
25609;SDS011;13479;49.044;8.716;2023-05-23T17:56:05;12.50;;;8.38;;
25609;SDS011;13479;49.044;8.716;2023-05-23T17:58:34;13.80;;;7.25;;
25609;SDS011;13479;49.044;8.716;2023-05-23T18:00:59;11.60;;;7.50;;
25609;SDS011;13479;49.044;8.716;2023-05-23T18:03:26;12.40;;;8.23;;
25609;SDS011;13479;49.044;8.716;2023-05-23T18:05:52;11.55;;;7.28;;
25609;SDS011;13479;49.044;8.716;2023-05-23T18:08:17;14.10;;;7.68;;
25609;SDS011;13479;49.044;8.716;2023-05-23T18:10:42;14.13;;;7.28;;
25609;SDS011;13479;49.044;8.716;2023-05-23T18:13:11;13.25;;;7.57;;
25609;SDS011;13479;49.044;8.716;2023-05-23T18:15:38;11.60;;;6.40;;
25609;SDS011;13479;49.044;8.716;2023-05-23T18:18:04;10.93;;;6.80;;
25609;SDS011;13479;49.044;8.716;2023-05-23T18:20:29;13.00;;;7.20;;
25609;SDS011;13479;49.044;8.716;2023-05-23T18:22:54;10.75;;;6.78;;
25609;SDS011;13479;49.044;8.716;2023-05-23T18:25:20;10.80;;;5.70;;
25609;SDS011;13479;49.044;8.716;2023-05-23T18:27:51;12.73;;;6.90;;
25609;SDS011;13479;49.044;8.716;2023-05-23T18:30:21;9.90;;;6.25;;
25609;SDS011;13479;49.044;8.716;2023-05-23T18:32:47;13.07;;;6.60;;
25609;SDS011;13479;49.044;8.716;2023-05-23T18:35:13;15.52;;;7.22;;
25609;SDS011;13479;49.044;8.716;2023-05-23T18:37:39;9.75;;;6.38;;
25609;SDS011;13479;49.044;8.716;2023-05-23T18:40:05;11.52;;;6.90;;
25609;SDS011;13479;49.044;8.716;2023-05-23T18:42:31;10.15;;;6.72;;
25609;SDS011;13479;49.044;8.716;2023-05-23T18:44:56;11.18;;;6.63;;
25609;SDS011;13479;49.044;8.716;2023-05-23T18:47:21;11.00;;;6.63;;
25609;SDS011;13479;49.044;8.716;2023-05-23T18:49:47;14.88;;;6.25;;
25609;SDS011;13479;49.044;8.716;2023-05-23T18:52:13;9.43;;;6.03;;
25609;SDS011;13479;49.044;8.716;2023-05-23T18:54:39;11.25;;;6.85;;
25609;SDS011;13479;49.044;8.716;2023-05-23T18:57:05;10.02;;;6.40;;